createdAt,value
2023-03-11T12:55:37.906Z,1.02
2023-03-11T12:58:59.397Z,1.03
2023-03-11T13:01:55.847Z,1.01
2023-03-11T13:04:37.968Z,0.99
2023-03-11T13:07:39.040Z,0.94
2023-03-11T13:10:16.335Z,0.86
2023-03-11T13:12:48.411Z,0.79
2023-03-11T13:15:37.614Z,0.72
2023-03-11T13:18:24.880Z,0.67
2023-03-11T13:21:41.397Z,0.63
2023-03-11T13:24:51.502Z,0.60
2023-03-11T13:27:30.027Z,0.58
2023-03-11T13:30:26.419Z,0.58
2023-03-11T13:33:12.173Z,0.54
2023-03-11T13:35:59.946Z,0.51
2023-03-11T13:38:49.680Z,0.48
2023-03-11T13:41:33.633Z,0.43
2023-03-11T13:44:22.393Z,0.43
2023-03-11T13:46:58.491Z,0.43
2023-03-11T13:49:39.244Z,0.42
2023-03-11T13:52:26.368Z,0.39
2023-03-11T13:55:35.551Z,0.33
2023-03-11T13:58:18.006Z,0.28
2023-03-11T14:00:55.236Z,0.25
2023-03-11T14:03:46.611Z,0.23
2023-03-11T14:06:19.463Z,0.23
2023-03-11T14:08:55.808Z,0.21
2023-03-11T14:11:30.324Z,0.19
2023-03-11T14:14:31.692Z,0.18
2023-03-11T14:17:21.366Z,0.18
2023-03-11T14:20:16.537Z,0.18
2023-03-11T14:22:51.224Z,0.18
2023-03-11T14:25:38.810Z,0.18
2023-03-11T14:28:08.119Z,0.16
2023-03-11T14:31:01.567Z,0.15
2023-03-11T14:33:38.824Z,0.12
2023-03-11T14:36:15.958Z,0.14
2023-03-11T14:39:03.828Z,0.14
2023-03-11T14:41:54.016Z,0.13
2023-03-11T14:44:44.797Z,0.11
2023-03-11T14:47:39.286Z,0.11
2023-03-11T14:50:16.609Z,0.15
2023-03-11T14:52:58.843Z,0.23
2023-03-11T14:55:40.524Z,0.33
2023-03-11T14:58:34.764Z,0.43
2023-03-11T15:01:26.593Z,0.49
2023-03-11T15:04:21.261Z,0.52
2023-03-11T15:07:03.281Z,0.55
2023-03-11T15:09:51.458Z,0.59
2023-03-11T15:12:37.338Z,0.62
2023-03-11T15:15:30.291Z,0.62
2023-03-11T15:18:02.988Z,0.64
2023-03-11T15:21:15.711Z,0.65
2023-03-11T15:23:48.636Z,0.69
2023-03-11T15:26:24.061Z,0.72
2023-03-11T15:28:57.565Z,0.74
2023-03-11T15:31:36.212Z,0.75
2023-03-11T15:34:32.121Z,0.75
2023-03-11T15:37:25.554Z,0.76
2023-03-11T15:39:58.722Z,0.72
2023-03-11T15:42:31.111Z,0.66
2023-03-11T15:45:10.424Z,0.61
2023-03-11T15:47:47.823Z,0.58
2023-03-11T15:50:28.632Z,0.55
2023-03-11T15:53:10.983Z,0.52
2023-03-11T15:56:07.349Z,0.48
2023-03-11T15:58:35.662Z,0.45
2023-03-11T16:01:09.016Z,0.44
2023-03-11T16:03:36.768Z,0.42
2023-03-11T16:06:13.933Z,0.41
2023-03-11T16:08:45.066Z,0.39
2023-03-11T16:11:14.677Z,0.39
2023-03-11T16:13:51.840Z,0.36
2023-03-11T16:16:20.837Z,0.33
2023-03-11T16:19:08.473Z,0.32
2023-03-11T16:21:39.756Z,0.32
2023-03-11T16:24:16.476Z,0.32
2023-03-11T16:26:43.801Z,0.31
2023-03-11T16:29:19.293Z,0.30
2023-03-11T16:31:49.896Z,0.30
2023-03-11T16:34:17.719Z,0.30
2023-03-11T16:36:45.002Z,0.27
2023-03-11T16:39:14.655Z,0.24
2023-03-11T16:41:46.140Z,0.22
2023-03-11T16:44:16.790Z,0.22
2023-03-11T16:47:04.208Z,0.20
2023-03-11T16:49:33.630Z,0.17
2023-03-11T16:52:00.968Z,0.14
2023-03-11T16:54:28.617Z,0.11
2023-03-11T16:56:56.381Z,0.07
2023-03-11T16:59:23.661Z,0.03
2023-03-11T17:02:13.043Z,-0.01
2023-03-11T17:04:43.148Z,-0.04
2023-03-11T17:07:24.952Z,-0.06
2023-03-11T17:10:01.980Z,-0.08
2023-03-11T17:12:49.372Z,-0.09
2023-03-11T17:15:16.787Z,-0.11
2023-03-11T17:18:05.262Z,-0.12
2023-03-11T17:20:39.641Z,-0.13
2023-03-11T17:23:27.314Z,-0.15
2023-03-11T17:25:58.307Z,-0.17
2023-03-11T17:28:31.821Z,-0.18
2023-03-11T17:31:00.219Z,-0.18
2023-03-11T17:33:32.717Z,-0.18
2023-03-11T17:36:05.850Z,-0.19
2023-03-11T17:38:46.935Z,-0.18
2023-03-11T17:41:22.803Z,-0.17
2023-03-11T17:44:00.481Z,-0.16
2023-03-11T17:46:47.964Z,-0.17
2023-03-11T17:49:25.520Z,-0.17
2023-03-11T17:51:52.946Z,-0.17
2023-03-11T17:54:20.319Z,-0.17
2023-03-11T17:57:00.806Z,-0.18
2023-03-11T17:59:28.353Z,-0.17
2023-03-11T18:02:13.697Z,-0.17
2023-03-11T18:04:55.132Z,-0.17
2023-03-11T18:07:26.101Z,-0.16
2023-03-11T18:10:15.982Z,-0.18
2023-03-11T18:12:51.557Z,-0.19
2023-03-11T18:15:30.072Z,-0.21
2023-03-11T18:18:00.929Z,-0.24
2023-03-11T18:20:28.998Z,-0.27
2023-03-11T18:23:07.965Z,-0.29
2023-03-11T18:25:35.212Z,-0.31
2023-03-11T18:28:04.005Z,-0.34
2023-03-11T18:30:43.363Z,-0.37
2023-03-11T18:33:13.214Z,-0.40
2023-03-11T18:36:01.300Z,-0.44
2023-03-11T18:38:31.693Z,-0.49
2023-03-11T18:41:19.362Z,-0.52
2023-03-11T18:43:59.394Z,-0.55
2023-03-11T18:46:37.870Z,-0.59
2023-03-11T18:49:25.483Z,-0.62
2023-03-11T18:52:04.497Z,-0.64
2023-03-11T18:54:51.901Z,-0.68
2023-03-11T18:57:22.398Z,-0.70
2023-03-11T18:59:52.096Z,-0.73
2023-03-11T19:02:22.149Z,-0.75
2023-03-11T19:05:10.916Z,-0.77
2023-03-11T19:07:48.394Z,-0.79
2023-03-11T19:10:25.779Z,-0.81
2023-03-11T19:13:13.292Z,-0.83
2023-03-11T19:15:53.505Z,-0.86
2023-03-11T19:18:41.310Z,-0.87
2023-03-11T19:21:16.925Z,-0.89
2023-03-11T19:24:04.603Z,-0.91
2023-03-11T19:26:52.209Z,-0.93
2023-03-11T19:29:23.900Z,-0.94
2023-03-11T19:32:11.368Z,-0.96
2023-03-11T19:34:41.705Z,-0.97
2023-03-11T19:37:09.057Z,-0.99
2023-03-11T19:39:36.315Z,-0.99
2023-03-11T19:42:06.879Z,-1.02
2023-03-11T19:44:34.043Z,-1.05
2023-03-11T19:47:01.444Z,-1.05
2023-03-11T19:49:31.193Z,-1.07
2023-03-11T19:52:01.433Z,-1.09
2023-03-11T19:54:46.307Z,-1.10
2023-03-11T19:57:33.742Z,-1.13
2023-03-11T20:00:23.097Z,-1.14
2023-03-11T20:03:02.452Z,-1.16
2023-03-11T20:05:32.381Z,-1.17
2023-03-11T20:08:00.141Z,-1.19
2023-03-11T20:10:50.008Z,-1.19
2023-03-11T20:13:27.456Z,-1.22
2023-03-11T20:15:55.094Z,-1.24
2023-03-11T20:18:42.771Z,-1.25
2023-03-11T20:21:19.335Z,-1.27
2023-03-11T20:23:49.089Z,-1.28
2023-03-11T20:26:36.891Z,-1.29
2023-03-11T20:29:17.966Z,-1.31
2023-03-11T20:31:45.907Z,-1.32
2023-03-11T20:34:14.359Z,-1.32
2023-03-11T20:36:41.613Z,-1.34
2023-03-11T20:39:10.616Z,-1.34
2023-03-11T20:41:39.764Z,-1.34
2023-03-11T20:44:13.102Z,-1.34
2023-03-11T20:46:40.428Z,-1.34
2023-03-11T20:49:07.886Z,-1.35
2023-03-11T20:51:48.209Z,-1.35
2023-03-11T20:54:15.677Z,-1.36
2023-03-11T20:56:49.187Z,-1.35
2023-03-11T20:59:16.514Z,-1.34
2023-03-11T21:01:46.988Z,-1.31
2023-03-11T21:04:35.800Z,-1.27
2023-03-11T21:07:03.165Z,-1.25
2023-03-11T21:09:30.708Z,-1.21
2023-03-11T21:11:57.981Z,-1.17
2023-03-11T21:14:25.350Z,-1.15
2023-03-11T21:16:52.840Z,-1.13
2023-03-11T21:19:30.581Z,-1.12
2023-03-11T21:21:58.232Z,-1.12
2023-03-11T21:24:25.381Z,-1.10
2023-03-11T21:26:52.912Z,-1.08
2023-03-11T21:29:20.152Z,-1.07
2023-03-11T21:31:47.540Z,-1.07
2023-03-11T21:34:18.192Z,-1.06
2023-03-11T21:36:48.629Z,-1.08
2023-03-11T21:39:16.097Z,-1.10
2023-03-11T21:41:44.094Z,-1.12
2023-03-11T21:44:13.801Z,-1.14
2023-03-11T21:46:51.666Z,-1.16
2023-03-11T21:49:19.073Z,-1.17
2023-03-11T21:52:08.013Z,-1.16
2023-03-11T21:54:35.324Z,-1.16
2023-03-11T21:57:02.792Z,-1.15
2023-03-11T21:59:41.398Z,-1.14
2023-03-11T22:02:13.476Z,-1.12
2023-03-11T22:04:40.995Z,-1.11
2023-03-11T22:07:08.504Z,-1.09
2023-03-11T22:09:35.843Z,-1.08
2023-03-11T22:12:03.830Z,-1.08
2023-03-11T22:14:31.442Z,-1.08
2023-03-11T22:17:01.807Z,-1.07
2023-03-11T22:19:37.006Z,-1.07
2023-03-11T22:22:04.612Z,-1.08
2023-03-11T22:24:42.194Z,-1.09
2023-03-11T22:27:09.478Z,-1.11
2023-03-11T22:29:39.907Z,-1.13
2023-03-11T22:32:10.160Z,-1.15
2023-03-11T22:34:37.542Z,-1.17
2023-03-11T22:37:04.921Z,-1.20
2023-03-11T22:39:34.523Z,-1.22
2023-03-11T22:42:02.295Z,-1.24
2023-03-11T22:44:31.746Z,-1.26
2023-03-11T22:47:19.334Z,-1.28
2023-03-11T22:50:07.419Z,-1.31
2023-03-11T22:52:37.390Z,-1.33
2023-03-11T22:55:17.903Z,-1.35
2023-03-11T22:57:56.083Z,-1.36
2023-03-11T23:00:26.523Z,-1.38
2023-03-11T23:03:04.679Z,-1.40
2023-03-11T23:05:32.122Z,-1.42
2023-03-11T23:07:59.433Z,-1.42
2023-03-11T23:10:27.157Z,-1.44
2023-03-11T23:12:54.471Z,-1.46
2023-03-11T23:15:25.161Z,-1.48
2023-03-11T23:17:55.371Z,-1.51
2023-03-11T23:20:22.725Z,-1.52
2023-03-11T23:22:49.763Z,-1.54
2023-03-11T23:25:39.924Z,-1.55
2023-03-11T23:28:09.064Z,-1.58
2023-03-11T23:30:36.706Z,-1.60
2023-03-11T23:33:04.495Z,-1.61
2023-03-11T23:35:44.640Z,-1.62
2023-03-11T23:38:14.278Z,-1.63
2023-03-11T23:41:02.223Z,-1.64
2023-03-11T23:43:40.064Z,-1.64
2023-03-11T23:46:08.353Z,-1.64
2023-03-11T23:48:35.721Z,-1.64
2023-03-11T23:51:04.552Z,-1.66
2023-03-11T23:53:35.779Z,-1.67
2023-03-11T23:56:03.070Z,-1.68
2023-03-11T23:58:33.086Z,-1.69
